sensor_id;sensor_type;location;lat;lon;timestamp;pressure;altitude;pressure_sealevel;temperature;humidity
14120;BME280;7138;49.246;9.100;2023-03-03T00:00:31;98960.16;;;4.96;82.73
14120;BME280;7138;49.246;9.100;2023-03-03T00:03:04;98965.03;;;4.87;83.93
14120;BME280;7138;49.246;9.100;2023-03-03T00:05:32;98972.38;;;4.74;84.00
14120;BME280;7138;49.246;9.100;2023-03-03T00:07:58;98971.53;;;4.75;83.42
14120;BME280;7138;49.246;9.100;2023-03-03T00:10:24;98973.22;;;4.74;83.46
14120;BME280;7138;49.246;9.100;2023-03-03T00:12:51;98971.44;;;4.72;83.34
14120;BME280;7138;49.246;9.100;2023-03-03T00:15:21;98969.59;;;4.66;83.61
14120;BME280;7138;49.246;9.100;2023-03-03T00:17:48;98974.69;;;4.65;83.85
14120;BME280;7138;49.246;9.100;2023-03-03T00:20:32;98975.19;;;4.52;84.99
14120;BME280;7138;49.246;9.100;2023-03-03T00:23:25;98968.22;;;4.48;84.91
14120;BME280;7138;49.246;9.100;2023-03-03T00:25:54;98980.16;;;4.47;84.42
14120;BME280;7138;49.246;9.100;2023-03-03T00:28:25;98971.47;;;4.40;84.20
14120;BME280;7138;49.246;9.100;2023-03-03T00:30:56;98977.44;;;4.41;84.42
14120;BME280;7138;49.246;9.100;2023-03-03T00:33:28;98970.72;;;4.45;84.40
14120;BME280;7138;49.246;9.100;2023-03-03T00:36:21;98957.91;;;4.45;84.60
14120;BME280;7138;49.246;9.100;2023-03-03T00:38:53;98967.50;;;4.52;84.39
14120;BME280;7138;49.246;9.100;2023-03-03T00:41:24;98977.75;;;4.52;84.18
14120;BME280;7138;49.246;9.100;2023-03-03T00:43:51;98976.84;;;4.50;84.25
14120;BME280;7138;49.246;9.100;2023-03-03T00:46:21;98977.59;;;4.47;84.04
14120;BME280;7138;49.246;9.100;2023-03-03T00:48:49;98978.47;;;4.48;83.47
14120;BME280;7138;49.246;9.100;2023-03-03T00:51:33;98979.44;;;4.51;82.85
14120;BME280;7138;49.246;9.100;2023-03-03T00:54:01;98977.44;;;4.41;83.50
14120;BME280;7138;49.246;9.100;2023-03-03T00:56:27;98983.25;;;4.35;83.57
14120;BME280;7138;49.246;9.100;2023-03-03T00:58:53;98979.00;;;4.36;82.87
14120;BME280;7138;49.246;9.100;2023-03-03T01:01:20;98979.00;;;4.36;83.09
14120;BME280;7138;49.246;9.100;2023-03-03T01:03:47;98979.91;;;4.38;82.78
14120;BME280;7138;49.246;9.100;2023-03-03T01:06:13;98978.13;;;4.35;82.74
14120;BME280;7138;49.246;9.100;2023-03-03T01:08:40;98975.47;;;4.32;82.54
14120;BME280;7138;49.246;9.100;2023-03-03T01:11:13;98975.56;;;4.35;83.11
14120;BME280;7138;49.246;9.100;2023-03-03T01:13:43;98969.41;;;4.29;82.76
14120;BME280;7138;49.246;9.100;2023-03-03T01:16:10;98964.34;;;4.30;82.32
14120;BME280;7138;49.246;9.100;2023-03-03T01:18:38;98971.13;;;4.28;82.07
14120;BME280;7138;49.246;9.100;2023-03-03T01:21:06;98975.97;;;4.19;83.13
14120;BME280;7138;49.246;9.100;2023-03-03T01:23:32;98973.06;;;4.07;83.07
14120;BME280;7138;49.246;9.100;2023-03-03T01:25:58;98967.16;;;4.10;82.41
14120;BME280;7138;49.246;9.100;2023-03-03T01:28:24;98959.53;;;4.11;82.25
14120;BME280;7138;49.246;9.100;2023-03-03T01:30:49;98964.63;;;4.11;81.58
14120;BME280;7138;49.246;9.100;2023-03-03T01:33:15;98958.72;;;4.12;82.43
14120;BME280;7138;49.246;9.100;2023-03-03T01:35:45;98962.06;;;4.11;81.76
14120;BME280;7138;49.246;9.100;2023-03-03T01:38:11;98955.97;;;4.06;81.77
14120;BME280;7138;49.246;9.100;2023-03-03T01:40:37;98960.28;;;4.07;82.00
14120;BME280;7138;49.246;9.100;2023-03-03T01:43:03;98956.00;;;4.08;81.54
14120;BME280;7138;49.246;9.100;2023-03-03T01:45:44;98965.41;;;4.07;81.59
14120;BME280;7138;49.246;9.100;2023-03-03T01:48:30;98959.31;;;4.04;81.11
14120;BME280;7138;49.246;9.100;2023-03-03T01:51:01;98957.56;;;4.03;81.17
14120;BME280;7138;49.246;9.100;2023-03-03T01:53:38;98957.56;;;4.03;81.16
14120;BME280;7138;49.246;9.100;2023-03-03T01:56:08;98954.72;;;3.92;81.79
14120;BME280;7138;49.246;9.100;2023-03-03T01:58:37;98958.19;;;3.94;81.34
14120;BME280;7138;49.246;9.100;2023-03-03T02:01:11;98966.56;;;3.90;81.38
14120;BME280;7138;49.246;9.100;2023-03-03T02:03:40;98963.91;;;3.85;81.57
14120;BME280;7138;49.246;9.100;2023-03-03T02:06:12;98962.00;;;3.80;82.03
14120;BME280;7138;49.246;9.100;2023-03-03T02:08:50;98961.81;;;3.74;82.18
14120;BME280;7138;49.246;9.100;2023-03-03T02:11:19;98961.72;;;3.71;81.62
14120;BME280;7138;49.246;9.100;2023-03-03T02:13:46;98960.00;;;3.70;81.10
14120;BME280;7138;49.246;9.100;2023-03-03T02:18:47;98958.88;;;3.62;81.69
14120;BME280;7138;49.246;9.100;2023-03-03T02:21:19;98953.69;;;3.59;81.17
14120;BME280;7138;49.246;9.100;2023-03-03T02:23:53;98959.63;;;3.58;81.12
14120;BME280;7138;49.246;9.100;2023-03-03T02:26:27;98961.31;;;3.57;81.25
14120;BME280;7138;49.246;9.100;2023-03-03T02:28:53;98959.63;;;3.58;81.74
14120;BME280;7138;49.246;9.100;2023-03-03T02:31:22;98956.22;;;3.59;81.28
14120;BME280;7138;49.246;9.100;2023-03-03T02:33:51;98953.66;;;3.57;80.96
14120;BME280;7138;49.246;9.100;2023-03-03T02:36:20;98959.56;;;3.56;80.97
14120;BME280;7138;49.246;9.100;2023-03-03T02:38:54;98978.91;;;3.48;81.38
14120;BME280;7138;49.246;9.100;2023-03-03T02:41:32;98972.03;;;3.46;80.84
14120;BME280;7138;49.246;9.100;2023-03-03T02:44:03;98965.16;;;3.45;81.23
14120;BME280;7138;49.246;9.100;2023-03-03T02:46:34;98969.38;;;3.43;80.34
14120;BME280;7138;49.246;9.100;2023-03-03T02:49:00;98964.28;;;3.43;80.66
14120;BME280;7138;49.246;9.100;2023-03-03T02:51:27;98975.31;;;3.42;80.82
14120;BME280;7138;49.246;9.100;2023-03-03T02:53:52;98970.66;;;3.30;80.97
14120;BME280;7138;49.246;9.100;2023-03-03T02:56:18;98970.56;;;3.27;81.12
14120;BME280;7138;49.246;9.100;2023-03-03T02:58:45;98971.44;;;3.27;81.01
14120;BME280;7138;49.246;9.100;2023-03-03T03:01:11;98958.72;;;3.29;79.97
14120;BME280;7138;49.246;9.100;2023-03-03T03:03:37;98968.16;;;3.31;79.86
14120;BME280;7138;49.246;9.100;2023-03-03T03:06:03;98957.72;;;3.25;80.18
14120;BME280;7138;49.246;9.100;2023-03-03T03:08:29;98954.13;;;3.19;80.32
14120;BME280;7138;49.246;9.100;2023-03-03T03:10:56;98972.16;;;3.23;80.25
14120;BME280;7138;49.246;9.100;2023-03-03T03:13:22;98974.69;;;3.22;80.84
14120;BME280;7138;49.246;9.100;2023-03-03T03:15:50;98973.81;;;3.21;79.42
14120;BME280;7138;49.246;9.100;2023-03-03T03:18:17;98969.56;;;3.22;79.92
14120;BME280;7138;49.246;9.100;2023-03-03T03:20:43;98969.50;;;3.20;80.25
14120;BME280;7138;49.246;9.100;2023-03-03T03:23:11;98968.44;;;3.14;80.67
14120;BME280;7138;49.246;9.100;2023-03-03T03:25:37;98969.31;;;3.14;80.71
14120;BME280;7138;49.246;9.100;2023-03-03T03:28:10;98969.91;;;3.07;80.58
14120;BME280;7138;49.246;9.100;2023-03-03T03:30:35;98968.91;;;3.02;80.54
14120;BME280;7138;49.246;9.100;2023-03-03T03:33:03;98973.91;;;2.99;80.45
14120;BME280;7138;49.246;9.100;2023-03-03T03:35:29;98972.06;;;2.95;79.50
14120;BME280;7138;49.246;9.100;2023-03-03T03:37:55;98986.44;;;2.92;80.30
14120;BME280;7138;49.246;9.100;2023-03-03T03:40:20;98980.25;;;2.85;80.44
14120;BME280;7138;49.246;9.100;2023-03-03T03:42:46;98984.28;;;2.79;81.07
14120;BME280;7138;49.246;9.100;2023-03-03T03:45:12;98984.06;;;2.72;80.39
14120;BME280;7138;49.246;9.100;2023-03-03T03:47:39;98991.66;;;2.71;81.19
14120;BME280;7138;49.246;9.100;2023-03-03T03:50:09;98987.50;;;2.73;81.03
14120;BME280;7138;49.246;9.100;2023-03-03T03:52:35;98988.28;;;2.72;80.19
14120;BME280;7138;49.246;9.100;2023-03-03T03:55:01;98985.84;;;2.75;79.43
14120;BME280;7138;49.246;9.100;2023-03-03T03:57:27;98990.25;;;2.79;79.53
14120;BME280;7138;49.246;9.100;2023-03-03T03:59:52;98990.25;;;2.79;78.94
14120;BME280;7138;49.246;9.100;2023-03-03T04:02:18;98993.47;;;2.73;80.09
14120;BME280;7138;49.246;9.100;2023-03-03T04:04:44;98992.41;;;2.68;79.83
14120;BME280;7138;49.246;9.100;2023-03-03T04:07:11;98993.28;;;2.69;79.16
14120;BME280;7138;49.246;9.100;2023-03-03T04:09:37;98992.38;;;2.67;79.55
14120;BME280;7138;49.246;9.100;2023-03-03T04:12:04;98985.53;;;2.66;79.81
14120;BME280;7138;49.246;9.100;2023-03-03T04:14:29;98987.97;;;2.63;79.20
14120;BME280;7138;49.246;9.100;2023-03-03T04:16:56;98986.41;;;2.66;79.76
14120;BME280;7138;49.246;9.100;2023-03-03T04:19:22;98994.88;;;2.65;79.02
14120;BME280;7138;49.246;9.100;2023-03-03T04:21:48;98996.63;;;2.66;79.63
14120;BME280;7138;49.246;9.100;2023-03-03T04:24:15;98996.41;;;2.60;79.92
14120;BME280;7138;49.246;9.100;2023-03-03T04:26:44;98997.16;;;2.58;79.08
14120;BME280;7138;49.246;9.100;2023-03-03T04:29:10;98989.28;;;2.52;79.21
14120;BME280;7138;49.246;9.100;2023-03-03T04:31:36;98995.19;;;2.51;79.14
14120;BME280;7138;49.246;9.100;2023-03-03T04:34:02;98995.97;;;2.48;79.23
14120;BME280;7138;49.246;9.100;2023-03-03T04:36:28;98997.75;;;2.51;80.24
14120;BME280;7138;49.246;9.100;2023-03-03T04:38:54;98988.41;;;2.51;78.96
14120;BME280;7138;49.246;9.100;2023-03-03T04:41:21;98995.34;;;2.55;79.27
14120;BME280;7138;49.246;9.100;2023-03-03T04:43:47;98990.13;;;2.52;78.87
14120;BME280;7138;49.246;9.100;2023-03-03T04:46:13;98991.84;;;2.52;79.56
14120;BME280;7138;49.246;9.100;2023-03-03T04:48:39;98991.78;;;2.50;79.45
14120;BME280;7138;49.246;9.100;2023-03-03T04:51:05;98990.00;;;2.48;80.32
14120;BME280;7138;49.246;9.100;2023-03-03T04:53:31;98999.09;;;2.41;79.38
14120;BME280;7138;49.246;9.100;2023-03-03T04:55:56;98990.53;;;2.39;79.54
14120;BME280;7138;49.246;9.100;2023-03-03T04:58:24;98995.47;;;2.35;80.68
14120;BME280;7138;49.246;9.100;2023-03-03T05:00:55;99006.28;;;2.28;80.87
14120;BME280;7138;49.246;9.100;2023-03-03T05:03:21;99005.22;;;2.22;81.01
14120;BME280;7138;49.246;9.100;2023-03-03T05:05:48;99007.75;;;2.22;81.34
14120;BME280;7138;49.246;9.100;2023-03-03T05:08:14;99012.00;;;2.22;80.74
14120;BME280;7138;49.246;9.100;2023-03-03T05:10:40;99007.66;;;2.19;80.60
14120;BME280;7138;49.246;9.100;2023-03-03T05:13:06;99005.00;;;2.16;80.48
14120;BME280;7138;49.246;9.100;2023-03-03T05:15:34;99016.94;;;2.17;81.65
14120;BME280;7138;49.246;9.100;2023-03-03T05:18:00;99017.75;;;2.16;80.47
14120;BME280;7138;49.246;9.100;2023-03-03T05:20:26;99021.00;;;2.12;80.54
14120;BME280;7138;49.246;9.100;2023-03-03T05:22:51;99011.53;;;2.10;81.76
14120;BME280;7138;49.246;9.100;2023-03-03T05:25:18;99016.72;;;2.11;81.38
14120;BME280;7138;49.246;9.100;2023-03-03T05:27:44;99017.41;;;2.07;82.03
14120;BME280;7138;49.246;9.100;2023-03-03T05:30:11;99026.50;;;2.01;81.20
14120;BME280;7138;49.246;9.100;2023-03-03T05:32:39;99027.22;;;1.97;81.78
14120;BME280;7138;49.246;9.100;2023-03-03T05:35:05;99029.00;;;1.99;81.10
14120;BME280;7138;49.246;9.100;2023-03-03T05:37:31;99035.13;;;2.04;81.12
14120;BME280;7138;49.246;9.100;2023-03-03T05:39:57;99035.13;;;2.04;81.92
14120;BME280;7138;49.246;9.100;2023-03-03T05:42:23;99035.84;;;2.00;81.22
14120;BME280;7138;49.246;9.100;2023-03-03T05:44:49;99040.81;;;1.97;81.18
14120;BME280;7138;49.246;9.100;2023-03-03T05:47:15;99046.66;;;1.95;81.81
14120;BME280;7138;49.246;9.100;2023-03-03T05:49:42;99036.66;;;1.99;81.58
14120;BME280;7138;49.246;9.100;2023-03-03T05:52:08;99042.53;;;1.98;81.96
14120;BME280;7138;49.246;9.100;2023-03-03T05:54:34;99041.66;;;1.98;80.98
14120;BME280;7138;49.246;9.100;2023-03-03T05:57:00;99037.56;;;2.01;80.91
14120;BME280;7138;49.246;9.100;2023-03-03T05:59:25;99041.84;;;2.02;81.75
14120;BME280;7138;49.246;9.100;2023-03-03T06:01:51;99042.03;;;2.07;80.75
14120;BME280;7138;49.246;9.100;2023-03-03T06:04:17;99047.22;;;2.10;81.34
14120;BME280;7138;49.246;9.100;2023-03-03T06:06:44;99044.88;;;2.14;81.33
14120;BME280;7138;49.246;9.100;2023-03-03T06:09:10;99048.31;;;2.15;80.08
14120;BME280;7138;49.246;9.100;2023-03-03T06:11:36;99048.22;;;2.13;80.33
14120;BME280;7138;49.246;9.100;2023-03-03T06:14:02;99046.56;;;2.14;79.67
14120;BME280;7138;49.246;9.100;2023-03-03T06:16:28;99051.66;;;2.14;80.09
14120;BME280;7138;49.246;9.100;2023-03-03T06:18:53;99050.78;;;2.13;80.80
14120;BME280;7138;49.246;9.100;2023-03-03T06:21:19;99061.94;;;2.15;81.19
14120;BME280;7138;49.246;9.100;2023-03-03T06:23:46;99056.00;;;2.16;81.33
14120;BME280;7138;49.246;9.100;2023-03-03T06:26:12;99064.53;;;2.17;81.55
14120;BME280;7138;49.246;9.100;2023-03-03T06:28:38;99064.72;;;2.22;80.47
14120;BME280;7138;49.246;9.100;2023-03-03T06:31:04;99061.44;;;2.26;80.42
14120;BME280;7138;49.246;9.100;2023-03-03T06:33:30;99070.09;;;2.29;80.20
14120;BME280;7138;49.246;9.100;2023-03-03T06:35:56;99075.28;;;2.32;80.22
14120;BME280;7138;49.246;9.100;2023-03-03T06:38:21;99074.59;;;2.36;80.89
14120;BME280;7138;49.246;9.100;2023-03-03T06:40:49;99074.75;;;2.41;80.20
14120;BME280;7138;49.246;9.100;2023-03-03T06:43:14;99079.28;;;2.48;79.68
14120;BME280;7138;49.246;9.100;2023-03-03T06:45:41;99075.28;;;2.54;79.92
14120;BME280;7138;49.246;9.100;2023-03-03T06:48:07;99073.00;;;2.62;79.94
14120;BME280;7138;49.246;9.100;2023-03-03T06:50:33;99075.78;;;2.68;79.82
14120;BME280;7138;49.246;9.100;2023-03-03T06:53:09;99086.31;;;2.77;80.21
14120;BME280;7138;49.246;9.100;2023-03-03T06:55:36;99092.47;;;2.82;79.87
14120;BME280;7138;49.246;9.100;2023-03-03T06:58:11;99091.84;;;2.89;80.82
14120;BME280;7138;49.246;9.100;2023-03-03T07:00:40;99091.22;;;2.95;80.46
14120;BME280;7138;49.246;9.100;2023-03-03T07:03:12;99099.31;;;3.07;80.09
14120;BME280;7138;49.246;9.100;2023-03-03T07:05:39;99091.16;;;3.17;80.82
14120;BME280;7138;49.246;9.100;2023-03-03T07:08:11;99092.50;;;3.31;80.69
14120;BME280;7138;49.246;9.100;2023-03-03T07:10:38;99097.97;;;3.42;80.83
14120;BME280;7138;49.246;9.100;2023-03-03T07:13:19;99092.44;;;3.55;80.54
14120;BME280;7138;49.246;9.100;2023-03-03T07:15:47;99100.47;;;3.65;80.13
14120;BME280;7138;49.246;9.100;2023-03-03T07:18:34;99099.16;;;3.78;79.36
14120;BME280;7138;49.246;9.100;2023-03-03T07:21:14;99106.44;;;3.91;80.31
14120;BME280;7138;49.246;9.100;2023-03-03T07:23:41;99102.50;;;4.02;79.34
14120;BME280;7138;49.246;9.100;2023-03-03T07:26:11;99103.91;;;4.19;78.83
14120;BME280;7138;49.246;9.100;2023-03-03T07:28:43;99104.13;;;4.27;79.20
14120;BME280;7138;49.246;9.100;2023-03-03T07:31:34;99108.03;;;4.43;78.43
14120;BME280;7138;49.246;9.100;2023-03-03T07:34:04;99108.13;;;4.46;78.38
14120;BME280;7138;49.246;9.100;2023-03-03T07:36:40;99113.59;;;4.58;78.63
14120;BME280;7138;49.246;9.100;2023-03-03T07:39:24;99103.09;;;4.78;78.01
14120;BME280;7138;49.246;9.100;2023-03-03T07:41:54;99108.63;;;4.92;77.80
14120;BME280;7138;49.246;9.100;2023-03-03T07:44:29;99119.31;;;5.07;77.39
14120;BME280;7138;49.246;9.100;2023-03-03T07:47:19;99111.09;;;5.20;77.46
14120;BME280;7138;49.246;9.100;2023-03-03T07:49:48;99114.00;;;5.32;77.06
14120;BME280;7138;49.246;9.100;2023-03-03T07:52:26;99105.81;;;5.45;77.03
14120;BME280;7138;49.246;9.100;2023-03-03T07:54:55;99117.34;;;5.61;76.87
14120;BME280;7138;49.246;9.100;2023-03-03T07:57:25;99121.97;;;5.76;75.81
14120;BME280;7138;49.246;9.100;2023-03-03T07:59:59;99124.94;;;5.91;76.15
14120;BME280;7138;49.246;9.100;2023-03-03T08:02:39;99126.22;;;6.08;75.43
14120;BME280;7138;49.246;9.100;2023-03-03T08:05:27;99112.75;;;6.17;75.06
14120;BME280;7138;49.246;9.100;2023-03-03T08:08:01;99110.28;;;6.21;75.18
14120;BME280;7138;49.246;9.100;2023-03-03T08:10:37;99110.59;;;6.35;75.14
14120;BME280;7138;49.246;9.100;2023-03-03T08:13:17;99121.91;;;6.44;75.08
14120;BME280;7138;49.246;9.100;2023-03-03T08:15:48;99123.94;;;6.57;75.77
14120;BME280;7138;49.246;9.100;2023-03-03T08:18:24;99121.63;;;6.70;75.30
14120;BME280;7138;49.246;9.100;2023-03-03T08:20:55;99120.94;;;6.78;74.29
14120;BME280;7138;49.246;9.100;2023-03-03T08:23:22;99126.34;;;6.90;74.78
14120;BME280;7138;49.246;9.100;2023-03-03T08:25:50;99126.47;;;6.96;74.25
14120;BME280;7138;49.246;9.100;2023-03-03T08:28:16;99128.44;;;7.08;74.35
14120;BME280;7138;49.246;9.100;2023-03-03T08:30:45;99132.09;;;7.21;74.42
14120;BME280;7138;49.246;9.100;2023-03-03T08:33:12;99129.75;;;7.31;73.88
14120;BME280;7138;49.246;9.100;2023-03-03T08:35:39;99137.72;;;7.45;74.42
14120;BME280;7138;49.246;9.100;2023-03-03T08:38:06;99143.91;;;7.54;73.84
14120;BME280;7138;49.246;9.100;2023-03-03T08:40:33;99142.28;;;7.59;74.36
14120;BME280;7138;49.246;9.100;2023-03-03T08:43:00;99135.69;;;7.74;73.68
14120;BME280;7138;49.246;9.100;2023-03-03T08:45:27;99128.06;;;7.80;73.34
14120;BME280;7138;49.246;9.100;2023-03-03T08:47:54;99134.38;;;7.98;73.42
14120;BME280;7138;49.246;9.100;2023-03-03T08:50:21;99126.03;;;8.13;72.11
14120;BME280;7138;49.246;9.100;2023-03-03T08:52:47;99122.72;;;8.20;72.10
14120;BME280;7138;49.246;9.100;2023-03-03T08:55:13;99128.69;;;8.17;70.42
14120;BME280;7138;49.246;9.100;2023-03-03T08:57:39;99131.31;;;8.20;70.83
14120;BME280;7138;49.246;9.100;2023-03-03T09:00:09;99144.25;;;8.25;70.78
14120;BME280;7138;49.246;9.100;2023-03-03T09:02:35;99137.41;;;8.27;70.55
14120;BME280;7138;49.246;9.100;2023-03-03T09:05:03;99141.81;;;8.31;70.87
14120;BME280;7138;49.246;9.100;2023-03-03T09:07:29;99138.63;;;8.47;71.34
14120;BME280;7138;49.246;9.100;2023-03-03T09:09:55;99127.63;;;8.60;71.15
14120;BME280;7138;49.246;9.100;2023-03-03T09:12:28;99139.81;;;8.70;70.83
14120;BME280;7138;49.246;9.100;2023-03-03T09:14:57;99133.06;;;8.80;71.38
14120;BME280;7138;49.246;9.100;2023-03-03T09:17:29;99135.03;;;9.01;70.60
14120;BME280;7138;49.246;9.100;2023-03-03T09:20:17;99137.84;;;9.17;69.95
14120;BME280;7138;49.246;9.100;2023-03-03T09:22:47;99149.97;;;9.27;69.14
14120;BME280;7138;49.246;9.100;2023-03-03T09:25:24;99155.22;;;9.32;68.75
14120;BME280;7138;49.246;9.100;2023-03-03T09:27:53;99154.34;;;9.30;68.93
14120;BME280;7138;49.246;9.100;2023-03-03T09:30:39;99151.84;;;9.38;68.73
14120;BME280;7138;49.246;9.100;2023-03-03T09:33:23;99157.91;;;9.41;69.18
14120;BME280;7138;49.246;9.100;2023-03-03T09:35:53;99156.22;;;9.46;68.78
14120;BME280;7138;49.246;9.100;2023-03-03T09:38:28;99163.97;;;9.46;68.36
14120;BME280;7138;49.246;9.100;2023-03-03T09:44:11;99161.31;;;9.39;68.53
14120;BME280;7138;49.246;9.100;2023-03-03T09:47:08;99170.03;;;9.48;67.81
14120;BME280;7138;49.246;9.100;2023-03-03T09:49:48;99163.13;;;9.47;68.20
14120;BME280;7138;49.246;9.100;2023-03-03T09:52:36;99165.03;;;9.63;69.32
14120;BME280;7138;49.246;9.100;2023-03-03T09:55:25;99161.69;;;9.73;67.76
14120;BME280;7138;49.246;9.100;2023-03-03T09:58:13;99159.09;;;9.73;67.01
14120;BME280;7138;49.246;9.100;2023-03-03T10:00:55;99160.94;;;9.86;67.27
14120;BME280;7138;49.246;9.100;2023-03-03T10:04:11;99159.34;;;9.99;67.50
14120;BME280;7138;49.246;9.100;2023-03-03T10:06:47;99148.34;;;10.17;67.15
14120;BME280;7138;49.246;9.100;2023-03-03T10:09:45;99153.59;;;10.30;68.57
14120;BME280;7138;49.246;9.100;2023-03-03T10:12:19;99155.41;;;10.39;67.37
14120;BME280;7138;49.246;9.100;2023-03-03T10:15:07;99155.59;;;10.63;66.98
14120;BME280;7138;49.246;9.100;2023-03-03T10:17:49;99167.69;;;10.73;68.21
14120;BME280;7138;49.246;9.100;2023-03-03T10:20:32;99153.94;;;10.80;65.56
14120;BME280;7138;49.246;9.100;2023-03-03T10:23:14;99154.88;;;10.93;66.72
14120;BME280;7138;49.246;9.100;2023-03-03T10:25:55;99142.00;;;11.10;67.69
14120;BME280;7138;49.246;9.100;2023-03-03T10:28:55;99152.41;;;11.20;65.09
14120;BME280;7138;49.246;9.100;2023-03-03T10:31:41;99150.75;;;11.30;66.29
14120;BME280;7138;49.246;9.100;2023-03-03T10:34:40;99153.34;;;11.36;64.87
14120;BME280;7138;49.246;9.100;2023-03-03T10:37:20;99171.50;;;11.48;65.22
14120;BME280;7138;49.246;9.100;2023-03-03T10:40:09;99165.47;;;11.58;64.27
14120;BME280;7138;49.246;9.100;2023-03-03T10:43:20;99169.84;;;11.68;63.18
14120;BME280;7138;49.246;9.100;2023-03-03T10:46:12;99169.03;;;11.75;63.58
14120;BME280;7138;49.246;9.100;2023-03-03T10:48:56;99161.28;;;11.87;63.91
14120;BME280;7138;49.246;9.100;2023-03-03T10:51:37;99165.63;;;11.91;63.29
14120;BME280;7138;49.246;9.100;2023-03-03T10:54:27;99158.69;;;11.93;62.12
14120;BME280;7138;49.246;9.100;2023-03-03T10:57:06;99163.88;;;11.90;63.29
14120;BME280;7138;49.246;9.100;2023-03-03T10:59:53;99159.56;;;11.98;62.49
14120;BME280;7138;49.246;9.100;2023-03-03T11:02:37;99158.72;;;12.09;62.34
14120;BME280;7138;49.246;9.100;2023-03-03T11:05:28;99155.25;;;12.14;61.44
14120;BME280;7138;49.246;9.100;2023-03-03T11:08:00;99157.00;;;12.18;63.59
14120;BME280;7138;49.246;9.100;2023-03-03T11:10:51;99147.47;;;12.29;60.93
14120;BME280;7138;49.246;9.100;2023-03-03T11:13:30;99162.16;;;12.45;62.14
14120;BME280;7138;49.246;9.100;2023-03-03T11:16:21;99153.50;;;12.60;61.98
14120;BME280;7138;49.246;9.100;2023-03-03T11:19:12;99156.91;;;12.77;63.43
14120;BME280;7138;49.246;9.100;2023-03-03T11:24:44;99152.59;;;12.88;61.39
14120;BME280;7138;49.246;9.100;2023-03-03T11:27:32;99152.59;;;12.91;62.35
14120;BME280;7138;49.246;9.100;2023-03-03T11:30:27;99152.56;;;12.93;60.97
14120;BME280;7138;49.246;9.100;2023-03-03T11:33:06;99144.75;;;12.96;60.89
14120;BME280;7138;49.246;9.100;2023-03-03T11:35:45;99146.44;;;13.07;60.68
14120;BME280;7138;49.246;9.100;2023-03-03T11:38:26;99145.63;;;13.08;60.45
14120;BME280;7138;49.246;9.100;2023-03-03T11:41:00;99136.94;;;13.19;60.17
14120;BME280;7138;49.246;9.100;2023-03-03T11:43:35;99142.97;;;13.27;60.25
14120;BME280;7138;49.246;9.100;2023-03-03T11:46:06;99144.66;;;13.29;59.86
14120;BME280;7138;49.246;9.100;2023-03-03T11:48:43;99145.56;;;13.21;59.51
14120;BME280;7138;49.246;9.100;2023-03-03T11:51:19;99137.75;;;13.27;61.90
14120;BME280;7138;49.246;9.100;2023-03-03T11:53:57;99136.88;;;13.31;60.39
14120;BME280;7138;49.246;9.100;2023-03-03T11:56:29;99129.03;;;13.38;59.97
14120;BME280;7138;49.246;9.100;2023-03-03T11:59:30;99128.94;;;13.56;59.47
14120;BME280;7138;49.246;9.100;2023-03-03T12:02:14;99132.34;;;13.66;59.08
14120;BME280;7138;49.246;9.100;2023-03-03T12:04:48;99134.13;;;13.59;59.11
14120;BME280;7138;49.246;9.100;2023-03-03T12:07:29;99131.56;;;13.55;58.68
14120;BME280;7138;49.246;9.100;2023-03-03T12:10:17;99135.00;;;13.57;59.02
14120;BME280;7138;49.246;9.100;2023-03-03T12:12:57;99128.94;;;13.59;58.44
14120;BME280;7138;49.246;9.100;2023-03-03T12:15:35;99127.16;;;13.67;60.62
14120;BME280;7138;49.246;9.100;2023-03-03T12:18:40;99121.00;;;13.78;59.56
14120;BME280;7138;49.246;9.100;2023-03-03T12:21:28;99111.41;;;13.90;58.93
14120;BME280;7138;49.246;9.100;2023-03-03T12:24:16;99105.34;;;13.91;57.49
14120;BME280;7138;49.246;9.100;2023-03-03T12:27:05;99108.72;;;14.01;58.89
14120;BME280;7138;49.246;9.100;2023-03-03T12:29:41;99106.09;;;14.04;58.35
14120;BME280;7138;49.246;9.100;2023-03-03T12:32:31;99111.38;;;13.95;58.10
14120;BME280;7138;49.246;9.100;2023-03-03T12:35:08;99094.09;;;13.88;58.08
14120;BME280;7138;49.246;9.100;2023-03-03T12:37:53;99101.81;;;13.95;57.13
14120;BME280;7138;49.246;9.100;2023-03-03T12:40:25;99099.25;;;13.94;56.93
14120;BME280;7138;49.246;9.100;2023-03-03T12:43:13;99092.28;;;13.97;57.68
14120;BME280;7138;49.246;9.100;2023-03-03T12:45:53;99093.22;;;13.87;57.77
14120;BME280;7138;49.246;9.100;2023-03-03T12:48:28;99090.72;;;13.72;58.09
14120;BME280;7138;49.246;9.100;2023-03-03T12:51:11;99091.59;;;13.71;57.24
14120;BME280;7138;49.246;9.100;2023-03-03T12:54:02;99095.97;;;13.67;58.46
14120;BME280;7138;49.246;9.100;2023-03-03T12:56:38;99087.22;;;13.78;57.74
14120;BME280;7138;49.246;9.100;2023-03-03T12:59:20;99076.75;;;13.88;58.74
14120;BME280;7138;49.246;9.100;2023-03-03T13:02:19;99081.88;;;14.00;56.48
14120;BME280;7138;49.246;9.100;2023-03-03T13:04:59;99080.91;;;14.07;57.00
14120;BME280;7138;49.246;9.100;2023-03-03T13:07:36;99074.78;;;14.14;56.90
14120;BME280;7138;49.246;9.100;2023-03-03T13:10:17;99070.50;;;14.10;56.80
14120;BME280;7138;49.246;9.100;2023-03-03T13:12:53;99072.13;;;14.22;58.81
14120;BME280;7138;49.246;9.100;2023-03-03T13:15:26;99071.22;;;14.26;57.34
14120;BME280;7138;49.246;9.100;2023-03-03T13:18:05;99082.50;;;14.27;56.61
14120;BME280;7138;49.246;9.100;2023-03-03T13:20:44;99077.19;;;14.39;57.06
14120;BME280;7138;49.246;9.100;2023-03-03T13:23:30;99068.66;;;14.23;55.60
14120;BME280;7138;49.246;9.100;2023-03-03T13:26:06;99080.81;;;14.19;56.08
14120;BME280;7138;49.246;9.100;2023-03-03T13:28:40;99077.47;;;14.05;55.43
14120;BME280;7138;49.246;9.100;2023-03-03T13:31:14;99082.75;;;13.96;55.91
14120;BME280;7138;49.246;9.100;2023-03-03T13:33:47;99075.78;;;13.98;57.38
14120;BME280;7138;49.246;9.100;2023-03-03T13:36:17;99071.31;;;14.18;57.67
14120;BME280;7138;49.246;9.100;2023-03-03T13:38:49;99079.88;;;14.27;56.46
14120;BME280;7138;49.246;9.100;2023-03-03T13:41:24;99072.06;;;14.33;56.15
14120;BME280;7138;49.246;9.100;2023-03-03T13:43:56;99064.19;;;14.39;55.46
14120;BME280;7138;49.246;9.100;2023-03-03T13:46:36;99067.59;;;14.45;55.81
14120;BME280;7138;49.246;9.100;2023-03-03T13:49:20;99064.09;;;14.49;55.42
14120;BME280;7138;49.246;9.100;2023-03-03T13:51:58;99063.16;;;14.55;56.80
14120;BME280;7138;49.246;9.100;2023-03-03T13:54:50;99057.09;;;14.56;55.73
14120;BME280;7138;49.246;9.100;2023-03-03T13:57:34;99059.59;;;14.65;55.48
14120;BME280;7138;49.246;9.100;2023-03-03T14:00:31;99061.31;;;14.63;55.88